Time;durP1;ratioP1;P1;durP2;ratioP2;P2;SDS_P1;SDS_P2;PMS_P1;PMS_P2;Temp;Humidity;BMP_temperature;BMP_pressure;BME280_temperature;BME280_humidity;BME280_pressure;Samples;Min_cycle;Max_cycle;Signal;HPM_P1;HPM_P2
2022/05/08 00:02:19;;;;;;;6.43;4.23;;;;;;;6.73;61.21;99350.19;4941395;29;20184;-86
2022/05/08 00:04:51;;;;;;;9.50;4.13;;;;;;;10.55;60.83;99968.78;4952386;29;20652;-86
2022/05/08 00:07:20;;;;;;;10.67;4.23;;;;;;;10.58;60.56;99979.97;4922357;29;20185;-87
2022/05/08 00:09:46;;;;;;;6.83;4.40;;;;;;;8.96;59.85;99719.06;4939192;29;20197;-87
2022/05/08 00:12:13;;;;;;;8.30;4.27;;;;;;;9.61;60.57;99836.34;4939809;29;20259;-86
2022/05/08 00:14:41;;;;;;;7.47;4.07;;;;;;;7.19;60.14;99376.31;4941322;29;20225;-85
2022/05/08 00:17:07;;;;;;;9.47;4.30;;;;;;;6.99;60.28;99387.75;4940855;29;20162;-86
2022/05/08 00:19:32;;;;;;;9.83;4.77;;;;;;;10.33;60.33;99927.97;4940098;29;20161;-86
2022/05/08 00:21:58;;;;;;;8.57;4.33;;;;;;;8.05;59.98;99562.56;4952873;29;20560;-87
2022/05/08 00:24:23;;;;;;;8.37;4.30;;;;;;;7.43;59.34;99428.91;4937303;29;20249;-87
2022/05/08 00:26:50;;;;;;;12.73;4.70;;;;;;;7.51;59.86;99452.00;4936415;29;20189;-87
2022/05/08 00:29:15;;;;;;;11.13;4.50;;;;;;;6.99;60.06;99382.72;4937767;29;20197;-88
2022/05/08 00:31:42;;;;;;;10.60;4.50;;;;;;;7.75;59.89;99477.72;4919748;29;20269;-85
2022/05/08 00:34:07;;;;;;;11.97;5.10;;;;;;;8.96;60.10;99725.00;4935967;29;20176;-86
2022/05/08 00:36:32;;;;;;;13.90;4.43;;;;;;;6.92;60.35;99389.06;4938227;29;20169;-86
2022/05/08 00:38:58;;;;;;;7.53;4.57;;;;;;;8.09;60.40;99574.56;4921978;29;20180;-87
2022/05/08 00:41:24;;;;;;;10.17;5.10;;;;;;;6.06;60.98;99228.13;4938232;29;20161;-86
2022/05/08 00:43:49;;;;;;;9.63;4.50;;;;;;;6.22;61.21;99238.28;4920928;29;20173;-86
2022/05/08 00:46:16;;;;;;;13.53;5.00;;;;;;;10.40;61.04;99971.41;4937595;29;20162;-86
2022/05/08 00:48:42;;;;;;;9.33;4.30;;;;;;;9.59;61.44;99831.19;4920885;29;20173;-87
2022/05/08 00:51:10;;;;;;;14.23;7.07;;;;;;;8.85;62.03;99724.41;4936820;29;20193;-87
2022/05/08 00:53:50;;;;;;;10.93;7.60;;;;;;;5.62;64.06;99224.59;4938366;29;20166;-87
2022/05/08 00:56:18;;;;;;;17.13;9.33;;;;;;;8.16;65.94;99717.84;4922493;29;20603;-87
2022/05/08 00:58:47;;;;;;;16.53;10.20;;;;;;;9.47;67.27;99934.16;4923742;29;20169;-87
2022/05/08 01:01:14;;;;;;;14.30;8.40;;;;;;;5.99;69.14;99399.38;4923289;29;20260;-87
2022/05/08 01:03:41;;;;;;;12.87;7.90;;;;;;;6.25;70.24;99439.53;4938232;29;20252;-85
2022/05/08 01:06:17;;;;;;;13.60;7.87;;;;;;;6.43;69.92;99480.88;4940118;29;20162;-87
2022/05/08 01:08:45;;;;;;;13.90;7.60;;;;;;;5.78;70.45;99387.97;4922823;29;20209;-86
2022/05/08 01:11:12;;;;;;;10.77;7.20;;;;;;;9.13;71.57;99965.84;4939732;29;20193;-88
2022/05/08 01:13:39;;;;;;;12.30;6.83;;;;;;;9.07;72.09;99945.28;4940064;29;20176;-87
2022/05/08 01:16:09;;;;;;;15.47;7.90;;;;;;;4.62;72.11;99225.88;4937909;29;20256;-85
2022/05/08 01:18:35;;;;;;;11.97;7.63;;;;;;;5.23;72.92;99369.47;4921718;29;20173;-87
2022/05/08 01:21:01;;;;;;;13.37;8.17;;;;;;;4.50;74.76;99247.66;4922020;29;20280;-87
2022/05/08 01:23:26;;;;;;;13.63;7.37;;;;;;;6.46;74.79;99605.91;4939121;29;20189;-86
2022/05/08 01:25:54;;;;;;;17.53;9.70;;;;;;;6.53;75.42;99635.72;4938859;29;20192;-86
2022/05/08 01:28:20;;;;;;;15.93;8.03;;;;;;;8.67;76.39;99965.69;4938499;29;20666;-86
2022/05/08 01:30:48;;;;;;;21.73;11.43;;;;;;;7.76;75.61;99794.41;4938356;29;20205;-87
2022/05/08 01:33:14;;;;;;;32.03;18.53;;;;;;;8.67;76.10;99963.16;4920973;29;20165;-86
2022/05/08 01:35:43;;;;;;;118.20;79.47;;;;;;;6.41;76.00;99597.22;4937822;29;20169;-86
2022/05/08 01:38:10;;;;;;;200.60;126.73;;;;;;;4.56;76.38;99268.13;4923009;29;20205;-87
2022/05/08 01:40:36;;;;;;;148.27;95.23;;;;;;;4.00;76.48;99141.69;4937538;29;20169;-87
2022/05/08 01:43:03;;;;;;;118.53;75.70;;;;;;;8.70;76.74;99988.59;4921454;29;20173;-86
2022/05/08 01:45:28;;;;;;;44.73;25.20;;;;;;;7.37;77.64;99788.69;4939002;29;20224;-87
2022/05/08 01:50:38;;;;;;;70.00;38.67;;;;;;;6.35;78.19;99617.81;4940433;29;20192;-86
2022/05/08 01:53:04;;;;;;;68.97;43.50;;;;;;;5.59;78.46;99498.09;4925496;29;20177;-87
2022/05/08 01:55:30;;;;;;;145.43;75.57;;;;;;;4.83;78.87;99356.78;4939996;29;20166;-86
2022/05/08 01:57:55;;;;;;;120.03;59.20;;;;;;;5.77;79.70;99552.00;4921843;29;20170;-86
2022/05/08 02:00:22;;;;;;;87.03;41.70;;;;;;;6.54;80.20;99693.66;4938708;29;20164;-87
2022/05/08 02:02:49;;;;;;;71.67;35.47;;;;;;;7.70;81.75;99920.91;4927023;29;20252;-86
2022/05/08 02:05:19;;;;;;;114.73;52.80;;;;;;;7.93;80.91;99950.09;4958690;29;20177;-86
2022/05/08 02:07:45;;;;;;;33.53;17.00;;;;;;;7.92;81.48;99976.06;4938427;29;20646;-86
2022/05/08 02:10:12;;;;;;;18.27;9.50;;;;;;;4.82;82.48;99468.75;4972572;29;20169;-85
2022/05/08 02:12:38;;;;;;;17.60;8.23;;;;;;;5.42;83.47;99586.50;4965014;29;20630;-85
2022/05/08 02:15:06;;;;;;;13.63;7.83;;;;;;;2.74;83.62;99143.16;4922588;29;20413;-86
2022/05/08 02:17:32;;;;;;;13.17;7.37;;;;;;;5.93;84.91;99703.88;4940229;29;20939;-86
2022/05/08 02:19:58;;;;;;;16.40;7.27;;;;;;;6.51;85.85;99801.59;4938739;29;20409;-87
2022/05/08 02:22:23;;;;;;;14.33;7.83;;;;;;;3.80;85.88;99327.25;4920633;29;20262;-86
2022/05/08 02:24:49;;;;;;;12.33;7.60;;;;;;;3.16;86.84;99244.41;4933225;29;20586;-86
2022/05/08 02:27:15;;;;;;;14.57;7.50;;;;;;;5.03;87.83;99587.19;4919040;29;20178;-86
2022/05/08 02:29:41;;;;;;;12.30;7.40;;;;;;;1.71;88.85;99043.41;4917072;29;20402;-86
2022/05/08 02:32:07;;;;;;;11.33;7.40;;;;;;;4.76;90.49;99567.00;4917130;29;20292;-85
2022/05/08 02:34:32;;;;;;;13.63;7.70;;;;;;;4.18;90.07;99426.78;4917050;29;20561;-85
2022/05/08 02:36:57;;;;;;;13.90;7.43;;;;;;;6.23;90.35;99767.88;4917387;29;20216;-86
2022/05/08 02:39:23;;;;;;;12.10;7.70;;;;;;;6.01;90.44;99748.75;4917634;29;20658;-85
2022/05/08 02:41:50;;;;;;;15.60;8.33;;;;;;;3.68;90.46;99352.31;4919299;29;20170;-86
2022/05/08 02:44:16;;;;;;;14.50;7.80;;;;;;;7.30;90.60;99939.31;4917826;29;20584;-86
2022/05/08 02:46:41;;;;;;;13.43;7.87;;;;;;;7.29;90.39;99938.44;4919145;29;20402;-86
2022/05/08 02:49:07;;;;;;;15.80;7.90;;;;;;;3.81;89.75;99322.38;4901973;29;20257;-87
2022/05/08 02:51:32;;;;;;;14.40;7.80;;;;;;;4.94;91.39;99556.50;4919052;29;20197;-87
2022/05/08 02:53:58;;;;;;;16.73;7.93;;;;;;;5.62;91.53;99694.16;4918707;29;20174;-86
2022/05/08 02:59:07;;;;;;;15.27;8.37;;;;;;;5.65;92.49;99697.75;4918475;29;20250;-85
2022/05/08 03:01:33;;;;;;;15.63;8.80;;;;;;;3.20;92.85;99257.22;4934669;29;20493;-85
2022/05/08 03:03:58;;;;;;;15.97;8.10;;;;;;;4.25;93.56;99434.75;4918427;29;20264;-86
2022/05/08 03:06:23;;;;;;;14.67;8.30;;;;;;;4.82;93.42;99515.53;4918274;29;20276;-86
2022/05/08 03:08:50;;;;;;;15.10;8.87;;;;;;;4.08;92.91;99376.84;4932771;29;20550;-86
2022/05/08 03:11:25;;;;;;;13.50;8.10;;;;;;;3.56;91.91;99276.41;4933286;29;20205;-86
2022/05/08 03:13:51;;;;;;;26.43;15.37;;;;;;;5.12;91.94;99573.66;4918893;29;20410;-88
2022/05/08 03:16:17;;;;;;;102.13;52.80;;;;;;;6.80;90.10;99833.69;4918881;29;20793;-86
2022/05/08 03:18:45;;;;;;;97.73;52.40;;;;;;;6.24;89.58;99772.13;4918350;29;20485;-86
2022/05/08 03:21:12;;;;;;;98.00;50.33;;;;;;;6.03;90.31;99733.00;4931883;29;20166;-86
2022/05/08 03:23:42;;;;;;;129.40;68.60;;;;;;;5.57;89.84;99642.75;4924504;29;20822;-86
2022/05/08 03:26:08;;;;;;;156.30;83.43;;;;;;;5.93;90.16;99726.47;4926884;29;20424;-84
2022/05/08 03:28:34;;;;;;;161.80;89.67;;;;;;;7.48;89.43;99968.19;4942778;29;20924;-85
2022/05/08 03:31:00;;;;;;;171.60;94.67;;;;;;;6.64;89.38;99825.03;4939608;29;20347;-85
2022/05/08 03:33:31;;;;;;;156.07;80.87;;;;;;;6.07;88.49;99757.56;4938933;29;20457;-86
2022/05/08 03:35:57;;;;;;;120.47;62.27;;;;;;;3.53;87.76;99309.59;4940605;29;20169;-86
2022/05/08 03:38:23;;;;;;;139.73;76.37;;;;;;;5.82;88.09;99701.41;4942958;29;20435;-86
2022/05/08 03:40:48;;;;;;;209.97;112.97;;;;;;;2.55;86.59;99190.13;4943468;29;20409;-83
2022/05/08 03:43:14;;;;;;;259.17;120.13;;;;;;;3.26;86.70;99299.31;4941417;29;20578;-86
2022/05/08 03:45:39;;;;;;;96.13;44.37;;;;;;;5.01;86.24;99616.34;4942558;29;20169;-86
2022/05/08 03:48:05;;;;;;;56.87;28.10;;;;;;;4.72;86.92;99551.66;4926589;29;20592;-85
2022/05/08 03:50:31;;;;;;;46.03;25.50;;;;;;;4.75;88.63;99587.81;4942582;29;20209;-86
2022/05/08 03:52:58;;;;;;;60.33;35.10;;;;;;;2.48;87.46;99205.41;4940269;29;20519;-86
2022/05/08 03:55:24;;;;;;;51.57;29.00;;;;;;;4.10;87.75;99503.06;4925331;29;20276;-86
2022/05/08 03:57:50;;;;;;;55.57;30.73;;;;;;;5.86;87.79;99771.19;4940329;29;20480;-86
2022/05/08 04:00:16;;;;;;;71.50;38.23;;;;;;;4.21;88.27;99538.00;4923939;29;20503;-86
2022/05/08 04:02:42;;;;;;;62.47;35.70;;;;;;;7.14;87.65;99982.75;4940090;29;20642;-86
2022/05/08 04:05:08;;;;;;;58.40;32.33;;;;;;;7.07;87.24;100018.34;4929441;29;20484;-86
2022/05/08 04:07:34;;;;;;;52.70;31.50;;;;;;;4.64;87.04;99567.81;4948794;29;20284;-87
2022/05/08 04:09:59;;;;;;;52.80;27.27;;;;;;;4.53;86.84;99529.44;4944197;29;20843;-86
2022/05/08 04:12:26;;;;;;;37.90;23.27;;;;;;;2.73;87.91;99273.88;4941430;29;20200;-86
2022/05/08 04:14:52;;;;;;;38.07;21.07;;;;;;;4.13;88.55;99537.47;4941287;29;20181;-86
2022/05/08 04:17:17;;;;;;;34.73;19.37;;;;;;;2.98;90.89;99389.88;4941509;29;20907;-87
2022/05/08 04:19:43;;;;;;;26.23;15.10;;;;;;;4.04;90.98;99516.75;4923125;29;20529;-86
2022/05/08 04:24:52;;;;;;;27.90;14.63;;;;;;;7.38;88.90;99991.91;4940160;29;20236;-86
2022/05/08 04:27:18;;;;;;;23.20;13.10;;;;;;;6.58;87.19;99830.53;4955120;29;20429;-86
2022/05/08 04:29:43;;;;;;;35.07;19.07;;;;;;;7.08;86.00;99889.22;4958427;29;20158;-85
2022/05/08 04:32:09;;;;;;;35.63;18.73;;;;;;;8.07;84.53;99998.09;4937469;29;20213;-86
2022/05/08 04:34:34;;;;;;;32.77;18.20;;;;;;;4.53;83.89;99423.31;4944443;29;20640;-85
2022/05/08 04:37:00;;;;;;;25.63;14.37;;;;;;;5.50;83.21;99535.16;4922479;29;20635;-86
2022/05/08 04:39:25;;;;;;;22.23;11.00;;;;;;;6.04;82.60;99616.66;4940349;29;20181;-86
2022/05/08 04:41:51;;;;;;;17.10;8.70;;;;;;;6.90;82.35;99752.09;4938539;29;20173;-86
2022/05/08 04:44:18;;;;;;;16.43;8.73;;;;;;;7.12;81.89;99755.19;4939233;29;20242;-87
2022/05/08 04:46:43;;;;;;;15.57;8.50;;;;;;;6.15;81.79;99557.88;4924364;29;20713;-85
2022/05/08 04:49:08;;;;;;;15.57;8.03;;;;;;;5.92;80.84;99482.69;4939405;29;20169;-86
2022/05/08 04:51:34;;;;;;;13.53;7.97;;;;;;;6.40;79.68;99570.34;4940939;29;20185;-85
2022/05/08 04:54:00;;;;;;;13.37;7.60;;;;;;;6.97;79.88;99644.38;4939603;29;20173;-87
2022/05/08 04:56:25;;;;;;;15.33;8.20;;;;;;;7.55;78.97;99709.19;4942001;29;20312;-87
2022/05/08 04:58:51;;;;;;;16.23;7.90;;;;;;;5.12;77.16;99239.97;4924048;29;20240;-85
2022/05/08 05:01:16;;;;;;;18.77;8.53;;;;;;;9.43;77.92;100005.50;4939882;29;20166;-86
2022/05/08 05:03:42;;;;;;;19.80;8.97;;;;;;;7.36;78.32;99608.13;4940514;29;20619;-86
2022/05/08 05:06:07;;;;;;;17.37;9.20;;;;;;;7.07;76.99;99555.19;4941647;29;20170;-87
2022/05/08 05:08:33;;;;;;;17.10;8.90;;;;;;;9.34;77.34;99982.22;4936407;29;20165;-85
2022/05/08 05:10:59;;;;;;;21.50;9.60;;;;;;;9.74;77.85;99996.38;4937578;29;20192;-85
2022/05/08 05:13:25;;;;;;;16.70;9.20;;;;;;;8.49;76.52;99737.47;4935632;29;20178;-86
2022/05/08 05:15:51;;;;;;;19.77;9.47;;;;;;;10.12;75.44;100022.91;4937026;29;20565;-84
2022/05/08 05:18:16;;;;;;;17.77;10.13;;;;;;;8.58;75.17;99763.25;4939013;29;20177;-86
2022/05/08 05:20:42;;;;;;;22.93;10.00;;;;;;;9.46;73.36;99854.06;4937887;29;20162;-85
2022/05/08 05:23:08;;;;;;;17.23;9.50;;;;;;;7.14;73.02;99467.53;4937600;29;20162;-84
2022/05/08 05:25:34;;;;;;;21.33;9.90;;;;;;;9.15;72.18;99754.63;4936021;29;20232;-85
2022/05/08 05:27:59;;;;;;;20.03;10.47;;;;;;;10.56;72.46;100000.91;4938548;29;20220;-84
2022/05/08 05:30:24;;;;;;;15.17;9.03;;;;;;;8.67;72.02;99675.44;4937871;29;20169;-84
2022/05/08 05:32:50;;;;;;;16.03;9.83;;;;;;;10.10;71.55;99871.06;4936983;29;20638;-85
2022/05/08 05:35:15;;;;;;;18.47;9.63;;;;;;;8.53;71.19;99610.72;4936948;29;20174;-86
2022/05/08 05:37:41;;;;;;;25.63;10.43;;;;;;;7.20;72.29;99409.09;4937443;29;20627;-83
2022/05/08 05:40:07;;;;;;;16.90;10.57;;;;;;;8.22;72.07;99544.19;4936751;29;20260;-86
2022/05/08 05:42:32;;;;;;;18.53;10.73;;;;;;;8.20;71.97;99513.00;4938188;29;20169;-85
2022/05/08 05:44:58;;;;;;;19.47;10.67;;;;;;;8.77;73.06;99632.25;4923364;29;20336;-85
2022/05/08 05:50:09;;;;;;;19.23;10.30;;;;;;;10.99;73.13;99994.75;4938435;29;20223;-86
2022/05/08 05:52:36;;;;;;;18.07;10.40;;;;;;;11.36;72.20;99992.44;4934756;29;20189;-85
2022/05/08 05:55:07;;;;;;;16.63;10.60;;;;;;;9.05;70.49;99588.25;4942493;29;20668;-87
2022/05/08 05:57:33;;;;;;;14.90;9.73;;;;;;;9.85;69.79;99681.78;4936291;29;20311;-87
2022/05/08 05:59:59;;;;;;;18.33;9.70;;;;;;;8.86;68.58;99466.13;4936816;29;20174;-85
2022/05/08 06:02:24;;;;;;;22.17;10.07;;;;;;;8.56;67.89;99398.94;4938018;29;20197;-87
2022/05/08 06:04:50;;;;;;;18.17;9.97;;;;;;;10.01;67.78;99633.69;4940298;29;20201;-88
2022/05/08 06:07:15;;;;;;;16.37;10.07;;;;;;;11.45;66.98;99860.19;4951263;29;20634;-85
2022/05/08 06:09:41;;;;;;;16.07;10.70;;;;;;;12.35;67.36;99986.28;4936532;29;20182;-85
2022/05/08 06:12:07;;;;;;;16.30;10.03;;;;;;;11.44;65.88;99762.97;4940141;29;20197;-84
2022/05/08 06:14:32;;;;;;;16.80;9.43;;;;;;;11.66;63.22;99752.13;4923379;29;20245;-85
2022/05/08 06:16:58;;;;;;;17.27;10.43;;;;;;;10.70;62.91;99549.28;4952816;29;20240;-85
2022/05/08 06:19:23;;;;;;;15.67;9.53;;;;;;;12.41;62.49;99843.50;4934411;29;20200;-86
2022/05/08 06:21:52;;;;;;;18.20;9.43;;;;;;;11.53;62.04;99687.34;4934142;29;20181;-87
2022/05/08 06:24:17;;;;;;;14.03;8.90;;;;;;;13.63;61.44;99979.16;4931226;29;20216;-87
2022/05/08 06:26:43;;;;;;;17.37;10.07;;;;;;;13.68;60.71;99985.31;4931859;29;20630;-86
2022/05/08 06:29:08;;;;;;;21.63;12.43;;;;;;;12.89;59.77;99809.13;4938589;29;20193;-85
2022/05/08 06:31:34;;;;;;;16.87;8.87;;;;;;;11.51;57.70;99523.28;4938045;29;20236;-85
2022/05/08 06:33:59;;;;;;;19.40;11.67;;;;;;;14.25;58.35;99992.69;4951368;29;20674;-86
2022/05/08 06:36:26;;;;;;;15.53;8.90;;;;;;;11.87;58.08;99549.34;4942479;29;20658;-88
2022/05/08 06:38:52;;;;;;;13.87;8.70;;;;;;;13.19;57.21;99769.72;4917307;29;20225;-85
2022/05/08 06:41:18;;;;;;;16.60;8.77;;;;;;;13.40;56.96;99806.16;4934460;29;20169;-85
2022/05/08 06:43:44;;;;;;;16.00;9.07;;;;;;;13.90;56.44;99861.50;4938038;29;20165;-87
2022/05/08 06:46:11;;;;;;;14.37;9.30;;;;;;;15.02;54.95;99967.56;4919485;29;20205;-86
2022/05/08 06:48:37;;;;;;;13.93;8.60;;;;;;;13.02;54.93;99671.56;4941731;29;20174;-87
2022/05/08 06:51:03;;;;;;;13.93;9.10;;;;;;;12.16;56.00;99592.84;4952833;29;20214;-86
2022/05/08 06:53:29;;;;;;;14.27;9.03;;;;;;;14.80;55.80;99964.19;4944962;29;20229;-86
2022/05/08 06:55:54;;;;;;;15.60;9.27;;;;;;;13.50;54.75;99687.81;4935496;29;20251;-86
2022/05/08 06:58:20;;;;;;;13.80;8.67;;;;;;;14.77;54.16;99879.19;4935116;29;20169;-84
2022/05/08 07:03:55;;;;;;;13.97;9.97;;;;;;;14.21;53.33;99782.00;4965066;29;20195;-91
2022/05/08 07:06:20;;;;;;;13.77;9.67;;;;;;;11.07;54.16;99246.09;4963016;29;20188;-91
2022/05/08 07:08:51;;;;;;;16.93;9.27;;;;;;;11.50;53.55;99316.19;4961147;28;20172;-90
2022/05/08 07:11:17;;;;;;;13.60;8.97;;;;;;;15.05;52.27;99865.66;4942178;29;20216;-91
2022/05/08 07:13:42;;;;;;;10.30;8.47;;;;;;;14.01;51.67;99626.03;4947681;29;20212;-88
2022/05/08 07:16:08;;;;;;;13.63;8.73;;;;;;;16.30;50.93;99958.16;4945478;29;20220;-89
2022/05/08 07:18:33;;;;;;;16.50;9.90;;;;;;;16.42;50.29;99950.00;4962195;29;20176;-90
2022/05/08 07:20:58;;;;;;;14.33;8.30;;;;;;;16.03;50.10;99925.81;4945562;29;20981;-88
2022/05/08 07:23:24;;;;;;;13.27;8.37;;;;;;;15.22;52.35;99833.91;4962222;29;20205;-88
2022/05/08 07:25:50;;;;;;;16.00;8.63;;;;;;;14.87;51.83;99833.56;4962460;28;20252;-88
2022/05/08 07:28:15;;;;;;;16.77;9.07;;;;;;;12.83;51.21;99422.69;4953921;29;20197;-90
2022/05/08 07:30:41;;;;;;;13.67;9.10;;;;;;;14.78;51.08;99743.25;4943520;29;20642;-88
2022/05/08 07:33:06;;;;;;;13.07;8.57;;;;;;;14.28;50.71;99595.53;4944459;29;20206;-90
2022/05/08 07:38:17;;;;;;;15.07;8.53;;;;;;;16.67;49.74;99954.16;4944143;29;20172;-89
2022/05/08 07:40:47;;;;;;;13.03;8.53;;;;;;;15.52;49.53;99759.19;4943483;29;20174;-88
2022/05/08 07:43:13;;;;;;;12.67;8.17;;;;;;;13.66;50.65;99490.78;4927409;29;20217;-89
2022/05/08 07:45:38;;;;;;;14.93;8.17;;;;;;;14.94;49.90;99669.81;4944846;29;20587;-87
2022/05/08 07:48:04;;;;;;;13.20;8.20;;;;;;;15.87;49.29;99781.50;4943208;29;20702;-91
2022/05/08 07:50:30;;;;;;;14.60;8.50;;;;;;;15.85;49.25;99750.81;4926763;29;20166;-90
2022/05/08 07:52:55;;;;;;;12.20;8.43;;;;;;;15.29;49.75;99717.66;4944230;29;20196;-91
2022/05/08 07:55:21;;;;;;;12.67;8.57;;;;;;;15.21;48.18;99612.84;4943417;29;20169;-90
2022/05/08 07:57:46;;;;;;;16.43;8.03;;;;;;;14.68;47.08;99496.59;4945469;29;20177;-89
2022/05/08 08:00:12;;;;;;;13.43;7.90;;;;;;;15.92;46.30;99688.88;4930188;29;20666;-89
2022/05/08 08:02:37;;;;;;;13.57;7.97;;;;;;;14.85;46.24;99536.97;4944995;29;20177;-89
2022/05/08 08:05:03;;;;;;;13.40;7.43;;;;;;;16.66;44.88;99833.13;4943648;29;20244;-91
2022/05/08 08:07:28;;;;;;;12.43;8.10;;;;;;;14.22;44.54;99327.97;4926617;29;20177;-90
2022/05/08 08:09:54;;;;;;;17.00;8.17;;;;;;;18.12;44.38;99942.53;4943662;29;20165;-89
2022/05/08 08:12:19;;;;;;;13.90;7.73;;;;;;;16.78;44.76;99738.84;4926168;29;20678;-91
2022/05/08 08:14:45;;;;;;;10.63;7.33;;;;;;;15.23;44.51;99493.00;4926586;29;20265;-90
2022/05/08 08:17:10;;;;;;;14.87;7.90;;;;;;;13.60;44.16;99229.47;4941080;29;20173;-90
2022/05/08 08:19:36;;;;;;;14.17;7.50;;;;;;;14.65;44.51;99460.81;4941708;29;20173;-91
2022/05/08 08:22:02;;;;;;;13.93;6.97;;;;;;;15.29;43.56;99457.47;4944515;29;20249;-89
2022/05/08 08:24:27;;;;;;;13.83;7.53;;;;;;;14.93;43.76;99388.53;4946405;29;20285;-91
2022/05/08 08:26:53;;;;;;;12.67;7.20;;;;;;;15.20;45.28;99516.75;4951347;29;20174;-87
2022/05/08 08:29:18;;;;;;;12.80;7.10;;;;;;;17.21;44.15;99752.63;4947871;29;20554;-89
2022/05/08 08:31:43;;;;;;;11.03;7.20;;;;;;;15.58;43.29;99515.22;4962690;29;20760;-90
2022/05/08 08:34:09;;;;;;;9.50;6.80;;;;;;;18.10;42.46;99957.00;4948342;29;20173;-89
2022/05/08 08:36:36;;;;;;;10.17;6.90;;;;;;;17.43;42.15;99757.38;4947122;29;20266;-90
2022/05/08 08:39:01;;;;;;;10.87;7.13;;;;;;;16.81;42.53;99590.56;4930961;29;20189;-90
2022/05/08 08:41:31;;;;;;;9.63;7.07;;;;;;;18.69;42.05;99909.56;4930791;29;20169;-90
2022/05/08 08:49:50;;;;;;;9.70;6.80;;;;;;;15.54;42.30;99342.47;4949134;29;20688;-90
2022/05/08 08:52:18;;;;;;;16.53;6.63;;;;;;;17.04;41.00;99520.31;4949847;29;20220;-89
2022/05/08 08:54:44;;;;;;;11.43;6.70;;;;;;;16.88;41.12;99487.59;4963833;29;20623;-90
2022/05/08 08:57:09;;;;;;;10.90;6.53;;;;;;;16.29;41.57;99437.75;4965608;29;20241;-89
2022/05/08 08:59:35;;;;;;;10.13;5.83;;;;;;;17.13;42.39;99634.75;4965552;29;20193;-90
2022/05/08 09:02:00;;;;;;;10.63;6.23;;;;;;;17.95;42.38;99751.69;4964815;29;20193;-91
2022/05/08 09:04:26;;;;;;;9.90;6.63;;;;;;;15.22;41.35;99232.00;4952163;29;20170;-88
2022/05/08 09:06:52;;;;;;;9.60;6.60;;;;;;;17.43;41.36;99589.31;4966800;29;20196;-88
2022/05/08 09:09:24;;;;;;;11.87;6.40;;;;;;;15.33;41.37;99316.41;4935943;29;20173;-90
2022/05/08 09:11:51;;;;;;;9.70;6.20;;;;;;;16.01;41.55;99392.03;4954350;29;20208;-90
2022/05/08 09:14:36;;;;;;;7.40;5.80;;;;;;;15.53;40.76;99256.53;4976332;28;20188;-90
2022/05/08 09:17:06;;;;;;;8.10;6.13;;;;;;;16.99;40.70;99488.69;4957868;29;20216;-91
2022/05/08 09:19:37;;;;;;;13.77;6.17;;;;;;;18.88;40.88;99815.84;4940111;29;20173;-89
2022/05/08 09:22:11;;;;;;;14.87;6.43;;;;;;;17.69;40.86;99565.09;4938183;29;20248;-88
2022/05/08 09:24:50;;;;;;;8.83;5.87;;;;;;;16.95;38.87;99387.13;4941713;29;20245;-88
2022/05/08 09:27:17;;;;;;;11.50;5.90;;;;;;;17.24;39.27;99461.00;4932371;29;20173;-90
2022/05/08 09:29:44;;;;;;;12.93;6.50;;;;;;;17.00;40.27;99418.75;4934121;29;20169;-89
2022/05/08 09:32:36;;;;;;;17.00;9.27;;;;;;;19.54;39.79;99778.41;4932085;29;20226;-89
2022/05/08 09:35:02;;;;;;;11.60;6.40;;;;;;;17.20;40.27;99434.47;4932666;29;20204;-89
2022/05/08 09:37:28;;;;;;;21.40;13.83;;;;;;;17.61;39.55;99440.31;4919653;29;20256;-87
2022/05/08 09:40:17;;;;;;;14.73;7.77;;;;;;;16.93;40.38;99352.13;4934969;29;20178;-88
2022/05/08 09:42:43;;;;;;;13.17;6.10;;;;;;;18.08;41.50;99697.28;4931217;29;20193;-89
2022/05/08 09:45:10;;;;;;;18.43;12.13;;;;;;;15.97;42.22;99312.75;4917543;29;20178;-88
2022/05/08 09:47:44;;;;;;;17.70;13.90;;;;;;;16.33;42.12;99369.72;4919266;29;20217;-88
2022/05/08 09:50:11;;;;;;;8.60;6.57;;;;;;;16.59;41.33;99347.25;4917314;29;20190;-90
2022/05/08 09:52:41;;;;;;;11.23;5.93;;;;;;;17.34;42.15;99555.00;4915438;29;20202;-87
2022/05/08 09:55:09;;;;;;;8.20;5.60;;;;;;;16.34;41.97;99328.00;4916178;29;20186;-89
2022/05/08 09:57:35;;;;;;;8.73;6.27;;;;;;;16.18;42.57;99341.31;4914863;29;20214;-89
2022/05/08 10:00:02;;;;;;;10.10;6.03;;;;;;;15.96;41.96;99249.78;4931635;29;20182;-88
2022/05/08 10:02:28;;;;;;;9.80;5.83;;;;;;;17.49;42.21;99455.47;4943636;29;20236;-89
2022/05/08 10:04:54;;;;;;;8.37;5.50;;;;;;;16.35;41.59;99293.94;4943502;29;20170;-87
2022/05/08 10:07:21;;;;;;;8.37;5.67;;;;;;;16.12;42.37;99278.19;4927890;29;20262;-89
2022/05/08 10:15:35;;;;;;;7.27;5.67;;;;;;;19.86;41.64;99776.28;4932886;29;20210;-89
2022/05/08 10:18:23;;;;;;;7.93;5.43;;;;;;;19.87;41.91;99849.94;4916333;29;20213;-88
2022/05/08 10:21:08;;;;;;;7.47;5.10;;;;;;;19.63;41.31;99857.31;4932543;29;20170;-88
2022/05/08 10:23:47;;;;;;;8.67;5.30;;;;;;;19.57;41.67;99793.00;4929458;29;20178;-89
2022/05/08 10:26:22;;;;;;;10.57;5.30;;;;;;;19.75;42.37;99862.63;4945899;29;20192;-90
2022/05/08 10:29:02;;;;;;;8.67;5.50;;;;;;;19.78;42.32;99840.38;4951852;29;20232;-89
2022/05/08 10:31:55;;;;;;;8.90;5.13;;;;;;;19.62;42.45;99793.91;4959476;29;20201;-87
2022/05/08 10:34:32;;;;;;;12.50;5.20;;;;;;;18.82;43.01;99634.44;4892556;29;20214;-86
2022/05/08 10:37:12;;;;;;;11.60;5.93;;;;;;;20.24;42.31;99839.34;4871024;29;20571;-90
2022/05/08 10:39:45;;;;;;;7.37;5.60;;;;;;;19.82;42.15;99819.06;4869338;29;20191;-89
2022/05/08 10:42:23;;;;;;;9.40;5.20;;;;;;;20.49;41.11;99832.75;4885350;29;20688;-88
2022/05/08 10:44:49;;;;;;;9.67;5.53;;;;;;;20.02;41.28;99832.16;4884846;29;20195;-87
2022/05/08 10:47:33;;;;;;;9.33;5.07;;;;;;;20.41;41.45;99830.06;4885201;29;20611;-88
2022/05/08 10:50:05;;;;;;;8.83;5.20;;;;;;;20.82;41.29;99814.22;4878397;29;20179;-89
2022/05/08 10:52:48;;;;;;;11.13;6.13;;;;;;;20.82;41.16;99825.34;4890915;29;20264;-90
2022/05/08 10:55:15;;;;;;;9.57;5.63;;;;;;;20.02;42.26;99791.03;4891092;29;20190;-90
2022/05/08 10:57:43;;;;;;;8.77;5.43;;;;;;;19.63;41.29;99718.59;4905578;29;20279;-88
2022/05/08 11:00:11;;;;;;;8.80;5.47;;;;;;;20.01;42.06;99825.28;4905804;29;20158;-88
2022/05/08 11:02:55;;;;;;;6.97;5.57;;;;;;;20.57;41.22;99819.09;4894236;29;20242;-90
2022/05/08 11:05:34;;;;;;;7.83;5.13;;;;;;;19.88;40.87;99616.13;4892856;29;20271;-90
2022/05/08 11:08:13;;;;;;;7.93;5.50;;;;;;;18.54;41.38;99409.25;4896240;29;20174;-91
2022/05/08 11:10:45;;;;;;;9.80;5.53;;;;;;;17.36;41.52;99230.91;4909480;29;20221;-88
2022/05/08 11:13:12;;;;;;;7.77;5.03;;;;;;;17.71;42.81;99429.41;4949914;29;20181;-89
2022/05/08 11:15:41;;;;;;;8.70;5.30;;;;;;;20.32;42.28;99791.41;4948605;29;20618;-89
2022/05/08 11:18:20;;;;;;;11.67;5.67;;;;;;;20.03;42.57;99797.88;4950772;29;20169;-88
2022/05/08 11:20:51;;;;;;;13.13;5.90;;;;;;;19.70;42.27;99686.97;4944270;29;20587;-88
2022/05/08 11:23:19;;;;;;;9.87;5.80;;;;;;;21.01;41.10;99790.38;4946661;29;20162;-88
2022/05/08 11:25:53;;;;;;;7.13;5.13;;;;;;;20.33;40.44;99548.81;4945992;29;20221;-89
2022/05/08 11:28:40;;;;;;;7.60;5.40;;;;;;;22.64;38.97;99795.53;4947074;29;20177;-89
2022/05/08 11:31:19;;;;;;;8.10;5.53;;;;;;;21.87;37.14;99467.84;4949636;29;20461;-89
2022/05/08 11:36:31;;;;;;;7.20;5.00;;;;;;;20.50;37.81;99279.72;4955311;29;20192;-91
2022/05/08 11:39:00;;;;;;;8.17;4.90;;;;;;;22.16;37.98;99574.44;4965100;28;20201;-91
2022/05/08 11:41:32;;;;;;;8.10;5.10;;;;;;;23.34;36.45;99587.97;4970907;29;20172;-90
2022/05/08 11:44:02;;;;;;;9.37;4.90;;;;;;;23.41;36.14;99581.06;4945232;29;20599;-88
2022/05/08 11:46:37;;;;;;;7.90;5.20;;;;;;;25.33;34.76;99778.13;4946682;29;20209;-90
2022/05/08 11:49:26;;;;;;;8.70;4.90;;;;;;;23.01;35.83;99461.56;4950348;29;20171;-91
2022/05/08 11:51:57;;;;;;;9.68;5.40;;;;;;;23.30;36.17;99594.00;4948426;29;20203;-90
2022/05/08 11:54:23;;;;;;;8.15;5.35;;;;;;;24.35;36.48;99774.53;4958552;29;20793;-87
2022/05/08 11:56:54;;;;;;;7.05;5.05;;;;;;;23.22;35.74;99481.22;4947701;29;20169;-91
2022/05/08 11:59:22;;;;;;;8.90;5.30;;;;;;;24.47;35.89;99664.03;4933191;29;20176;-89
2022/05/08 12:01:53;;;;;;;10.20;5.47;;;;;;;22.85;35.08;99287.75;4951963;29;20184;-89
2022/05/08 12:04:26;;;;;;;9.38;5.30;;;;;;;26.40;34.33;99763.91;4952548;29;20184;-87